Aviation Digital Data Service (ADDS)

Output produced by METARs form (1930 UTC 27 May 2017)
found at http://aviationweather.gov/adds/metars/
 
KPQI 271720Z 2718/2818 04005KT P6SM FEW050 
     FM281500 VRB03KT P6SM VCSH BKN025